Time;durP1;ratioP1;P1;durP2;ratioP2;P2;SDS_P1;SDS_P2;PMS_P1;PMS_P2;Temp;Humidity;BMP_temperature;BMP_pressure;BME280_temperature;BME280_humidity;BME280_pressure;Samples;Min_cycle;Max_cycle;Signal;HPM_P1;HPM_P2
2024/01/31 00:02:16;;;;;;;32.00;19.50;;;;;;;3.57;88.48;100210.91;4995343;28;20561;-68
2024/01/31 00:04:44;;;;;;;32.13;19.98;;;;;;;3.62;87.19;100201.28;5011739;28;20038;-66
2024/01/31 00:07:09;;;;;;;32.85;19.90;;;;;;;3.61;86.99;100193.63;5010147;28;20033;-67
2024/01/31 00:09:35;;;;;;;31.50;19.55;;;;;;;3.34;87.27;100146.69;4989137;28;20018;-67
2024/01/31 00:12:00;;;;;;;31.75;19.42;;;;;;;3.43;86.98;100166.91;5014988;28;20468;-67
2024/01/31 00:14:26;;;;;;;37.35;19.77;;;;;;;3.53;87.82;100172.53;5010043;28;20018;-67
2024/01/31 00:16:58;;;;;;;36.97;19.98;;;;;;;3.54;87.34;100184.47;5011396;28;20029;-66
2024/01/31 00:19:23;;;;;;;34.35;20.67;;;;;;;3.36;87.29;100161.19;5011915;28;20048;-67
2024/01/31 00:21:51;;;;;;;34.22;20.45;;;;;;;3.49;88.17;100181.25;5008685;28;20022;-67
2024/01/31 00:24:16;;;;;;;37.38;20.17;;;;;;;3.59;88.28;100190.28;5013965;28;20032;-66
2024/01/31 00:26:42;;;;;;;33.50;20.50;;;;;;;3.57;88.16;100181.78;5014387;28;20040;-67
2024/01/31 00:29:07;;;;;;;31.33;19.13;;;;;;;3.37;87.92;100144.84;5011246;28;20760;-67
2024/01/31 00:31:35;;;;;;;32.92;19.73;;;;;;;3.60;87.73;100191.97;4991044;28;20026;-66
2024/01/31 00:34:02;;;;;;;34.63;19.50;;;;;;;3.28;88.07;100147.78;5012355;28;20025;-67
2024/01/31 00:36:28;;;;;;;30.80;20.30;;;;;;;3.31;88.60;100177.69;4998776;28;20037;-66
2024/01/31 00:38:54;;;;;;;35.67;19.58;;;;;;;3.31;89.28;100181.09;5015437;28;20102;-66
2024/01/31 00:41:21;;;;;;;34.50;18.85;;;;;;;3.30;88.78;100168.28;4997773;28;20076;-66
2024/01/31 00:43:52;;;;;;;30.80;19.17;;;;;;;3.34;89.12;100186.13;5015945;28;20094;-66
2024/01/31 00:46:19;;;;;;;30.42;19.00;;;;;;;3.43;88.31;100193.47;5050634;28;20028;-67
2024/01/31 00:48:45;;;;;;;32.20;18.65;;;;;;;3.33;88.16;100194.72;5009832;28;20041;-67
2024/01/31 00:51:13;;;;;;;30.35;18.33;;;;;;;3.20;87.86;100171.22;5014761;28;20630;-66
2024/01/31 00:53:41;;;;;;;33.30;19.20;;;;;;;3.24;88.32;100183.06;5013510;28;20029;-66
2024/01/31 00:56:08;;;;;;;30.88;18.85;;;;;;;3.24;88.02;100192.50;5025378;28;20030;-66
2024/01/31 00:58:34;;;;;;;34.30;19.17;;;;;;;3.22;88.73;100204.59;5028358;28;20037;-67
2024/01/31 01:00:59;;;;;;;32.55;19.40;;;;;;;2.96;88.05;100159.34;4993515;28;20022;-67
2024/01/31 01:03:27;;;;;;;31.60;18.92;;;;;;;3.21;88.48;100202.91;4994837;28;20038;-67
2024/01/31 01:05:52;;;;;;;32.95;19.63;;;;;;;3.00;88.49;100196.84;5000140;28;20029;-66
2024/01/31 01:08:18;;;;;;;30.38;18.80;;;;;;;2.91;89.32;100195.47;5011230;28;20045;-66
2024/01/31 01:10:44;;;;;;;29.90;19.00;;;;;;;3.04;89.39;100199.25;5028536;28;20030;-66
2024/01/31 01:13:12;;;;;;;32.95;18.63;;;;;;;2.66;89.49;100121.88;5013980;28;20033;-67
2024/01/31 01:15:40;;;;;;;37.25;19.77;;;;;;;2.98;89.56;100180.66;5012114;28;20033;-67
2024/01/31 01:18:05;;;;;;;34.30;19.08;;;;;;;3.06;89.90;100179.44;5031438;28;20304;-65
2024/01/31 01:20:32;;;;;;;29.95;19.25;;;;;;;3.20;89.30;100196.94;4995524;28;20499;-67
2024/01/31 01:22:58;;;;;;;30.50;19.02;;;;;;;3.21;89.09;100180.63;5020153;28;20026;-66
2024/01/31 01:25:23;;;;;;;30.45;17.98;;;;;;;2.87;89.46;100176.75;5012701;28;20048;-68
2024/01/31 01:27:52;;;;;;;30.98;18.55;;;;;;;2.67;89.65;100121.00;4999392;28;20444;-67
2024/01/31 01:30:18;;;;;;;31.45;18.42;;;;;;;3.01;89.61;100167.69;4999494;28;20063;-66
2024/01/31 01:32:44;;;;;;;30.80;17.95;;;;;;;3.06;89.73;100168.34;4997715;28;20379;-66
2024/01/31 01:35:09;;;;;;;29.35;17.90;;;;;;;2.99;88.66;100166.91;4995546;28;20773;-65
2024/01/31 01:37:37;;;;;;;28.17;17.02;;;;;;;3.04;89.23;100183.00;5011972;28;20743;-66
2024/01/31 01:40:02;;;;;;;30.48;18.02;;;;;;;2.97;89.01;100173.84;5011446;28;20722;-67
2024/01/31 01:42:30;;;;;;;28.58;17.35;;;;;;;2.87;90.43;100176.75;5007848;28;20022;-66
2024/01/31 01:44:55;;;;;;;29.35;17.95;;;;;;;2.44;89.82;100131.28;5011685;28;20118;-67
2024/01/31 01:47:22;;;;;;;33.13;17.95;;;;;;;2.52;90.00;100130.97;5012252;28;20029;-67
2024/01/31 01:49:51;;;;;;;27.92;17.48;;;;;;;2.87;90.39;100188.78;5015990;28;20017;-68
2024/01/31 01:52:18;;;;;;;26.98;18.17;;;;;;;2.37;90.19;100135.78;5013775;28;20028;-67
2024/01/31 01:54:45;;;;;;;32.38;18.55;;;;;;;2.81;90.48;100187.28;5011657;28;20109;-66
2024/01/31 01:57:10;;;;;;;28.17;17.95;;;;;;;2.73;90.79;100175.59;5015108;28;20030;-68
2024/01/31 01:59:38;;;;;;;29.58;17.50;;;;;;;2.72;91.07;100179.91;5011643;28;20033;-66
2024/01/31 02:02:06;;;;;;;28.52;17.67;;;;;;;2.69;91.18;100177.44;4999169;28;20025;-67
2024/01/31 02:04:32;;;;;;;30.52;17.73;;;;;;;2.61;90.70;100175.16;5018536;28;20103;-67
2024/01/31 02:07:00;;;;;;;31.60;18.30;;;;;;;2.73;89.83;100191.00;4995800;28;20472;-68
2024/01/31 02:09:27;;;;;;;27.98;16.88;;;;;;;2.73;90.46;100175.59;5045654;28;20100;-69
2024/01/31 02:11:53;;;;;;;31.63;17.52;;;;;;;2.79;90.21;100168.50;4995226;28;20029;-67
2024/01/31 02:14:23;;;;;;;30.92;17.42;;;;;;;2.40;90.51;100110.00;4999259;28;20491;-67
2024/01/31 02:16:48;;;;;;;29.73;17.75;;;;;;;2.73;90.46;100168.72;5010896;28;20033;-66
2024/01/31 02:19:16;;;;;;;28.02;16.85;;;;;;;2.69;89.99;100151.75;5012842;28;20026;-67
2024/01/31 02:21:43;;;;;;;30.83;17.90;;;;;;;2.67;90.15;100168.97;5012287;28;20029;-67
2024/01/31 02:24:14;;;;;;;26.45;16.52;;;;;;;2.59;90.88;100161.53;5011556;28;20031;-68
2024/01/31 02:26:42;;;;;;;27.05;17.17;;;;;;;2.56;91.97;100155.69;5012163;28;20483;-67
2024/01/31 02:29:07;;;;;;;28.63;17.48;;;;;;;2.45;91.76;100153.50;5011927;28;20562;-65
2024/01/31 02:31:35;;;;;;;32.60;18.23;;;;;;;2.45;91.81;100143.22;5009942;28;20206;-66
2024/01/31 02:34:00;;;;;;;27.15;17.30;;;;;;;2.33;92.35;100135.97;5012137;28;21209;-69
2024/01/31 02:36:28;;;;;;;26.00;16.85;;;;;;;2.49;92.05;100142.22;5010216;28;20106;-67
2024/01/31 02:38:53;;;;;;;28.38;17.60;;;;;;;2.50;91.51;100143.88;4994209;28;20049;-67
2024/01/31 02:41:23;;;;;;;28.35;17.13;;;;;;;2.51;90.95;100150.69;4996402;28;20114;-69
2024/01/31 02:43:50;;;;;;;29.38;17.42;;;;;;;2.49;91.43;100137.09;5021352;28;20052;-68
2024/01/31 02:46:15;;;;;;;28.33;17.42;;;;;;;2.45;91.38;100122.69;5002422;28;20441;-68
2024/01/31 02:48:41;;;;;;;26.13;16.92;;;;;;;2.41;91.35;100127.09;5026265;28;20028;-68
2024/01/31 02:51:06;;;;;;;27.73;16.83;;;;;;;2.40;91.83;100132.28;5014265;28;20021;-67
2024/01/31 02:53:31;;;;;;;32.80;17.52;;;;;;;2.07;91.96;100091.53;4995942;28;20416;-67
2024/01/31 02:55:59;;;;;;;30.52;18.23;;;;;;;2.25;92.59;100144.78;5015756;28;20032;-67
2024/01/31 02:58:24;;;;;;;29.60;17.08;;;;;;;2.27;92.70;100137.84;5016371;28;20052;-67
2024/01/31 03:00:50;;;;;;;29.20;17.38;;;;;;;2.35;92.52;100140.13;5013618;28;20575;-67
2024/01/31 03:03:15;;;;;;;28.25;18.30;;;;;;;2.34;92.98;100140.19;4997418;28;20079;-68
2024/01/31 03:05:40;;;;;;;27.95;16.85;;;;;;;2.38;92.75;100137.47;5011964;28;21461;-66
2024/01/31 03:08:08;;;;;;;27.63;16.27;;;;;;;2.27;93.02;100140.41;5016084;28;20033;-67
2024/01/31 03:10:36;;;;;;;28.15;17.05;;;;;;;1.92;92.45;100077.53;4999229;28;20040;-67
2024/01/31 03:13:02;;;;;;;28.73;16.45;;;;;;;2.34;91.67;100135.06;4994811;28;20348;-67
2024/01/31 03:15:27;;;;;;;27.55;16.17;;;;;;;2.31;92.73;100130.88;4996386;28;20549;-67
2024/01/31 03:17:52;;;;;;;27.25;16.33;;;;;;;2.24;92.98;100144.81;5014081;28;20129;-68
2024/01/31 03:20:18;;;;;;;27.80;16.65;;;;;;;2.09;93.16;100134.19;5010588;28;20060;-66
2024/01/31 03:22:43;;;;;;;28.10;16.42;;;;;;;2.18;94.04;100132.22;4997289;28;20774;-67
2024/01/31 03:25:09;;;;;;;26.42;16.00;;;;;;;2.22;93.85;100123.50;4996425;28;20690;-67
2024/01/31 03:27:34;;;;;;;29.70;16.60;;;;;;;2.30;94.30;100132.63;4987067;28;20068;-68
2024/01/31 03:30:02;;;;;;;25.75;16.05;;;;;;;2.31;94.22;100116.31;5015967;28;20045;-68
2024/01/31 03:32:29;;;;;;;24.92;16.02;;;;;;;2.02;94.06;100060.91;5017767;28;20662;-67
2024/01/31 03:34:55;;;;;;;26.95;16.38;;;;;;;2.34;94.07;100107.69;4997829;28;20029;-67
2024/01/31 03:37:20;;;;;;;27.63;16.70;;;;;;;2.30;94.93;100111.25;5023537;28;20110;-68
2024/01/31 03:39:45;;;;;;;28.95;16.25;;;;;;;2.40;94.24;100112.56;5008248;28;20032;-67
2024/01/31 03:42:12;;;;;;;27.48;15.95;;;;;;;2.13;93.03;100051.97;5009684;28;20538;-67
2024/01/31 03:44:37;;;;;;;26.38;16.48;;;;;;;2.03;93.42;100044.63;5029137;28;20033;-69
2024/01/31 03:47:07;;;;;;;26.02;15.65;;;;;;;2.07;93.67;100043.59;5010491;28;20088;-66
2024/01/31 03:49:35;;;;;;;28.13;16.67;;;;;;;2.33;93.83;100100.84;5006856;28;20879;-66
2024/01/31 03:52:01;;;;;;;27.30;16.65;;;;;;;2.25;94.40;100092.59;5000883;28;20038;-67
2024/01/31 03:54:26;;;;;;;28.45;16.27;;;;;;;2.05;94.71;100093.31;5021739;28;20637;-68
2024/01/31 03:56:51;;;;;;;27.98;17.65;;;;;;;2.22;93.90;100093.53;5038206;28;20108;-67
2024/01/31 03:59:17;;;;;;;27.70;16.33;;;;;;;2.08;94.40;100068.38;5010649;28;20021;-67
2024/01/31 04:01:42;;;;;;;27.70;16.77;;;;;;;2.23;94.20;100100.34;5013614;28;20051;-67
2024/01/31 04:04:10;;;;;;;27.17;17.10;;;;;;;2.22;94.54;100108.09;5014079;28;20025;-68
2024/01/31 04:06:35;;;;;;;27.85;16.75;;;;;;;2.23;94.37;100110.63;5013852;28;20041;-68
2024/01/31 04:09:00;;;;;;;25.58;16.35;;;;;;;2.15;93.85;100104.91;5025832;28;20388;-68
2024/01/31 04:11:31;;;;;;;29.05;17.38;;;;;;;2.23;94.29;100102.94;5000647;28;20049;-67
2024/01/31 04:14:02;;;;;;;26.20;15.65;;;;;;;2.21;93.70;100098.72;5015725;28;20017;-67
2024/01/31 04:16:28;;;;;;;32.75;16.35;;;;;;;1.97;93.79;100060.25;5019884;28;20445;-67
2024/01/31 04:18:54;;;;;;;26.10;15.73;;;;;;;1.83;93.84;100041.94;4998452;28;20195;-67
2024/01/31 04:21:23;;;;;;;28.13;15.73;;;;;;;1.90;93.99;100057.06;5009951;28;20450;-68
2024/01/31 04:23:51;;;;;;;26.63;15.98;;;;;;;2.09;94.29;100103.41;5006295;28;20082;-66
2024/01/31 04:26:23;;;;;;;28.23;15.90;;;;;;;2.06;94.50;100087.28;5016427;28;20029;-66
2024/01/31 04:28:51;;;;;;;28.38;15.75;;;;;;;2.17;94.51;100098.00;5001747;28;20617;-68
2024/01/31 04:31:16;;;;;;;27.60;15.65;;;;;;;2.10;94.65;100099.97;5001202;28;20561;-68
2024/01/31 04:33:44;;;;;;;22.65;15.20;;;;;;;2.04;94.45;100097.59;5003112;28;20032;-66
2024/01/31 04:36:12;;;;;;;27.35;15.95;;;;;;;2.08;94.49;100094.06;5015832;28;20033;-66
2024/01/31 04:38:42;;;;;;;28.65;16.17;;;;;;;2.14;93.29;100108.38;5015625;28;20056;-67
2024/01/31 04:41:08;;;;;;;27.92;16.08;;;;;;;2.04;94.18;100107.84;5018464;28;20163;-67
2024/01/31 04:43:34;;;;;;;26.33;16.23;;;;;;;2.03;94.11;100097.69;5016510;28;20437;-66
2024/01/31 04:46:02;;;;;;;26.77;16.05;;;;;;;1.96;93.69;100086.78;5010997;28;20018;-67
2024/01/31 04:48:27;;;;;;;24.40;14.25;;;;;;;2.08;94.73;100103.47;5015232;28;20044;-67
2024/01/31 04:50:52;;;;;;;25.77;15.23;;;;;;;2.00;94.51;100101.16;5000012;28;20112;-68
2024/01/31 04:53:18;;;;;;;25.55;15.27;;;;;;;2.04;94.31;100107.03;5014975;28;20037;-68
2024/01/31 04:55:44;;;;;;;26.85;15.10;;;;;;;1.99;95.04;100103.78;5015317;28;20025;-67
2024/01/31 04:58:12;;;;;;;24.40;14.77;;;;;;;1.91;95.53;100106.63;5015953;28;20153;-67
2024/01/31 05:00:37;;;;;;;25.85;15.32;;;;;;;1.82;95.40;100099.25;5000868;28;21227;-67
2024/01/31 05:03:02;;;;;;;23.27;14.73;;;;;;;1.53;95.18;100048.09;4999263;28;20033;-66
2024/01/31 05:05:28;;;;;;;24.65;16.02;;;;;;;1.94;95.19;100111.66;4996945;28;20235;-68
2024/01/31 05:07:53;;;;;;;24.40;15.52;;;;;;;1.94;94.70;100096.25;5014943;28;20127;-67
2024/01/31 05:10:20;;;;;;;23.17;14.65;;;;;;;1.95;95.08;100107.34;5017829;28;20075;-67
2024/01/31 05:12:45;;;;;;;27.38;16.17;;;;;;;1.95;95.52;100103.06;4999254;28;20025;-68
2024/01/31 05:15:11;;;;;;;26.25;15.95;;;;;;;2.01;94.86;100099.44;5014692;28;20357;-67
2024/01/31 05:17:36;;;;;;;29.88;16.50;;;;;;;1.93;94.70;100099.69;5024167;28;20073;-68
2024/01/31 05:20:02;;;;;;;27.42;16.58;;;;;;;1.98;95.03;100109.81;5005212;28;20029;-66
2024/01/31 05:22:28;;;;;;;25.95;16.42;;;;;;;1.89;95.25;100095.56;5015156;28;20041;-67
2024/01/31 05:24:56;;;;;;;27.38;16.52;;;;;;;1.91;96.58;100104.88;5005792;28;20033;-67
2024/01/31 05:27:21;;;;;;;27.75;17.15;;;;;;;1.76;96.65;100102.84;5015387;28;20116;-67
2024/01/31 05:29:49;;;;;;;30.23;20.65;;;;;;;1.87;96.49;100116.16;4997742;28;20030;-67
2024/01/31 05:32:17;;;;;;;31.40;20.25;;;;;;;1.80;96.23;100106.16;5008680;28;20127;-67
2024/01/31 05:34:44;;;;;;;33.13;20.08;;;;;;;1.78;96.77;100102.81;4999944;28;20049;-66
2024/01/31 05:37:10;;;;;;;30.63;20.63;;;;;;;1.91;96.55;100124.56;5000671;28;20156;-66
2024/01/31 05:39:35;;;;;;;32.60;21.27;;;;;;;1.76;97.19;100114.84;5013077;28;20756;-67
2024/01/31 05:42:01;;;;;;;34.42;24.05;;;;;;;1.53;97.50;100055.78;5028189;28;20029;-67
2024/01/31 05:44:29;;;;;;;32.65;23.35;;;;;;;1.90;96.85;100110.09;5015451;28;20931;-67
2024/01/31 05:46:57;;;;;;;33.60;22.90;;;;;;;1.95;97.54;100122.75;5011374;28;20025;-68
2024/01/31 05:49:22;;;;;;;35.65;21.95;;;;;;;1.95;97.66;100112.47;5008493;28;20068;-67
2024/01/31 05:51:51;;;;;;;33.55;22.13;;;;;;;1.98;97.08;100115.78;5006707;28;20025;-67
2024/01/31 05:54:16;;;;;;;32.65;22.08;;;;;;;2.03;97.65;100118.19;4997496;28;20029;-66
2024/01/31 05:56:42;;;;;;;31.48;20.98;;;;;;;2.03;97.17;100115.63;5016365;28;20091;-66
2024/01/31 05:59:08;;;;;;;32.13;20.50;;;;;;;1.62;97.44;100054.59;5018167;28;20817;-67
2024/01/31 06:01:36;;;;;;;33.00;20.75;;;;;;;2.00;97.17;100116.56;5014808;28;20022;-67
2024/01/31 06:04:03;;;;;;;30.75;19.17;;;;;;;1.95;97.46;100110.75;5018786;28;20087;-67
2024/01/31 06:06:29;;;;;;;29.45;19.15;;;;;;;1.88;98.46;100094.75;4992968;28;20059;-68
2024/01/31 06:08:55;;;;;;;27.40;18.20;;;;;;;1.98;98.58;100102.94;5012020;28;20480;-69
2024/01/31 06:11:21;;;;;;;26.45;17.83;;;;;;;1.76;98.17;100051.56;4996335;28;20038;-67
2024/01/31 06:13:46;;;;;;;28.25;18.90;;;;;;;2.00;97.75;100106.31;5026361;28;20033;-67
2024/01/31 06:16:12;;;;;;;26.20;18.10;;;;;;;1.85;97.80;100089.72;5016287;28;20108;-67
2024/01/31 06:18:38;;;;;;;28.35;18.13;;;;;;;1.89;98.25;100109.22;5010628;28;20034;-67
2024/01/31 06:21:04;;;;;;;30.60;18.27;;;;;;;1.94;99.20;100110.81;5029421;28;20026;-67
2024/01/31 06:23:30;;;;;;;28.67;17.67;;;;;;;1.54;98.88;100044.59;5013272;28;20069;-67
2024/01/31 06:25:55;;;;;;;29.13;18.73;;;;;;;1.97;99.69;100116.69;5006061;28;20556;-67
2024/01/31 06:28:20;;;;;;;30.95;17.40;;;;;;;2.10;99.30;100120.50;5023786;28;20033;-67
2024/01/31 06:30:53;;;;;;;27.13;17.92;;;;;;;2.08;98.21;100123.97;5008085;28;20051;-66
2024/01/31 06:33:23;;;;;;;26.50;18.52;;;;;;;1.77;98.67;100076.34;5020275;28;20029;-68
2024/01/31 06:35:48;;;;;;;;;;;;;;;2.10;98.54;100127.34;4995093;28;20025;-67
2024/01/31 06:38:16;;;;;;;27.33;17.08;;;;;;;1.95;99.19;100112.47;5033038;28;20394;-65
2024/01/31 06:40:43;;;;;;;30.55;18.55;;;;;;;2.02;99.21;100116.50;5000374;28;20028;-66
2024/01/31 06:43:09;;;;;;;29.23;18.13;;;;;;;1.66;100.00;100078.41;5007925;28;20041;-67
2024/01/31 06:45:34;;;;;;;28.52;18.20;;;;;;;1.90;100.00;100118.63;5009187;28;20025;-66
2024/01/31 06:48:03;;;;;;;29.27;19.92;;;;;;;1.63;100.00;100060.59;5014339;28;20539;-67
2024/01/31 06:50:32;;;;;;;28.25;17.88;;;;;;;1.92;99.80;100109.13;5009321;28;20025;-67
2024/01/31 06:53:02;;;;;;;29.95;18.48;;;;;;;1.99;99.66;100122.59;5012294;28;20516;-67
2024/01/31 06:55:27;;;;;;;26.17;17.17;;;;;;;1.69;99.70;100066.31;5016173;28;20029;-66
2024/01/31 06:57:53;;;;;;;32.42;18.90;;;;;;;1.99;100.00;100121.75;5020636;28;20056;-66
2024/01/31 07:00:18;;;;;;;30.55;20.60;;;;;;;1.57;100.00;100078.72;4996748;28;20495;-66
2024/01/31 07:02:44;;;;;;;36.28;25.55;;;;;;;1.90;100.00;100131.44;5011774;28;20037;-67
2024/01/31 07:05:09;;;;;;;46.88;34.40;;;;;;;1.98;100.00;100123.47;4993046;28;20601;-66
2024/01/31 07:07:35;;;;;;;53.55;36.45;;;;;;;1.63;100.00;100061.41;5009686;28;20614;-65
2024/01/31 07:10:00;;;;;;;51.30;36.03;;;;;;;2.04;100.00;100122.44;5013118;28;20025;-67
2024/01/31 07:12:28;;;;;;;47.80;33.85;;;;;;;1.95;100.00;100133.00;5008385;28;20700;-67
2024/01/31 07:14:53;;;;;;;39.78;29.02;;;;;;;1.86;100.00;100122.19;5009236;28;20067;-67
2024/01/31 07:17:19;;;;;;;35.38;23.45;;;;;;;1.67;100.00;100078.34;4989958;28;20456;-66
2024/01/31 07:19:44;;;;;;;33.65;23.20;;;;;;;2.09;100.00;100131.63;4994997;28;20083;-67
2024/01/31 07:22:10;;;;;;;35.47;23.83;;;;;;;2.18;100.00;100135.63;5012176;28;20038;-65
2024/01/31 07:24:35;;;;;;;36.38;23.00;;;;;;;1.97;100.00;100090.16;5018372;28;20841;-67
2024/01/31 07:27:03;;;;;;;33.75;20.20;;;;;;;2.32;99.77;100135.13;5013394;28;20029;-66
2024/01/31 07:29:29;;;;;;;31.10;20.98;;;;;;;2.08;100.00;100124.84;5024480;28;20051;-66
2024/01/31 07:31:55;;;;;;;29.50;20.98;;;;;;;2.16;100.00;100134.00;5013990;28;20044;-67
2024/01/31 07:34:20;;;;;;;31.88;20.55;;;;;;;2.20;100.00;100133.00;4997544;28;20052;-67
2024/01/31 07:36:45;;;;;;;32.78;20.15;;;;;;;2.24;100.00;100144.81;5014659;28;20180;-67
2024/01/31 07:39:11;;;;;;;29.00;19.13;;;;;;;1.93;100.00;100094.56;5019756;28;20045;-67
2024/01/31 07:41:43;;;;;;;28.77;19.75;;;;;;;2.27;100.00;100139.59;4997138;28;20567;-67
2024/01/31 07:44:08;;;;;;;32.20;19.45;;;;;;;2.40;100.00;100152.81;5004450;28;20442;-67
2024/01/31 07:46:36;;;;;;;31.42;18.95;;;;;;;2.47;100.00;100155.09;4994744;28;20034;-65
2024/01/31 07:49:04;;;;;;;30.33;19.80;;;;;;;2.41;100.00;100141.63;5010709;28;20033;-66
2024/01/31 07:51:29;;;;;;;30.13;19.25;;;;;;;2.46;100.00;100134.63;5010564;28;20072;-66
2024/01/31 07:53:55;;;;;;;26.60;18.92;;;;;;;2.48;100.00;100137.97;5014612;28;20120;-68
2024/01/31 07:56:20;;;;;;;28.88;18.80;;;;;;;2.60;100.00;100134.94;5014433;28;20582;-64
2024/01/31 07:58:45;;;;;;;28.15;18.35;;;;;;;2.45;100.00;100100.41;5003019;28;20069;-66
2024/01/31 08:01:11;;;;;;;27.73;18.67;;;;;;;2.43;100.00;100104.75;5013106;28;20147;-67
2024/01/31 08:03:43;;;;;;;25.08;17.60;;;;;;;2.73;100.00;100148.16;5009905;28;20045;-67
2024/01/31 08:06:08;;;;;;;30.13;17.23;;;;;;;2.69;100.00;100131.22;4986848;28;20056;-67
2024/01/31 08:08:37;;;;;;;25.58;16.20;;;;;;;2.81;100.00;100133.31;5014580;28;20030;-66
2024/01/31 08:11:03;;;;;;;26.77;15.90;;;;;;;2.92;100.00;100135.47;4996980;28;20032;-67
2024/01/31 08:13:32;;;;;;;25.95;16.35;;;;;;;3.05;100.00;100135.84;5015200;28;20029;-66
2024/01/31 08:15:57;;;;;;;25.38;16.27;;;;;;;3.07;100.00;100142.59;5011694;28;20493;-67
2024/01/31 08:18:23;;;;;;;23.88;14.80;;;;;;;2.99;100.00;100136.91;5007527;28;20045;-66
2024/01/31 08:20:48;;;;;;;22.90;14.30;;;;;;;3.18;100.00;100143.91;5012376;28;20025;-65
2024/01/31 08:23:14;;;;;;;23.23;14.55;;;;;;;3.20;100.00;100149.81;5009969;28;20030;-67
2024/01/31 08:25:39;;;;;;;25.95;15.80;;;;;;;2.99;100.00;100094.94;5013840;28;20030;-67
2024/01/31 08:28:04;;;;;;;23.25;15.20;;;;;;;3.01;100.00;100094.00;4994507;28;20548;-65
2024/01/31 08:30:30;;;;;;;21.73;15.27;;;;;;;3.44;100.00;100153.16;5012607;28;20100;-66
2024/01/31 08:32:55;;;;;;;22.02;14.60;;;;;;;3.43;100.00;100142.03;5010429;28;20120;-67
2024/01/31 08:35:21;;;;;;;22.20;14.73;;;;;;;3.34;100.00;100141.56;4994205;28;20033;-64
2024/01/31 08:37:46;;;;;;;24.10;15.18;;;;;;;3.42;100.00;100149.81;5013384;28;20147;-66
2024/01/31 08:40:14;;;;;;;26.15;15.27;;;;;;;3.39;100.00;100145.59;5014424;28;20022;-67
2024/01/31 08:42:40;;;;;;;23.65;14.63;;;;;;;3.52;100.00;100161.38;5012523;28;20048;-66
2024/01/31 08:45:11;;;;;;;22.95;14.25;;;;;;;3.51;100.00;100157.16;5007838;28;20360;-69
2024/01/31 08:47:37;;;;;;;23.90;14.98;;;;;;;3.56;100.00;100155.25;4990313;28;20044;-65
2024/01/31 08:50:02;;;;;;;21.13;13.88;;;;;;;3.22;100.00;100097.44;5004275;28;20026;-66
2024/01/31 08:52:28;;;;;;;20.63;13.70;;;;;;;3.52;100.00;100157.97;5010319;28;20706;-68
2024/01/31 08:54:55;;;;;;;19.02;12.70;;;;;;;3.60;100.00;100151.63;5020640;28;20549;-65
2024/01/31 08:57:21;;;;;;;22.45;13.38;;;;;;;3.68;100.00;100153.88;4998739;28;20231;-66
2024/01/31 08:59:51;;;;;;;20.02;14.38;;;;;;;3.71;100.00;100147.78;5029868;28;20781;-65
2024/01/31 09:02:17;;;;;;;23.52;13.82;;;;;;;3.45;100.00;100100.84;4998130;28;20056;-66
2024/01/31 09:04:42;;;;;;;20.15;13.38;;;;;;;3.76;100.00;100138.13;5014972;28;20475;-68
2024/01/31 09:07:07;;;;;;;22.52;13.45;;;;;;;3.45;100.00;100082.84;5015985;28;20041;-67
2024/01/31 09:09:37;;;;;;;19.58;13.55;;;;;;;3.87;100.00;100150.53;5001106;28;20045;-65
2024/01/31 09:12:04;;;;;;;20.30;12.73;;;;;;;3.85;100.00;100142.88;5008531;28;20032;-65
2024/01/31 09:14:32;;;;;;;18.48;12.45;;;;;;;3.92;100.00;100146.03;5003969;28;20029;-66
2024/01/31 09:16:57;;;;;;;22.63;13.43;;;;;;;3.94;100.00;100144.25;5031208;28;20136;-65
2024/01/31 09:19:25;;;;;;;23.27;12.65;;;;;;;3.88;100.00;100141.94;5026651;28;20025;-66
2024/01/31 09:21:50;;;;;;;20.17;13.35;;;;;;;3.92;100.00;100151.19;4993801;28;20023;-66
2024/01/31 09:24:18;;;;;;;17.02;12.35;;;;;;;4.04;100.00;100151.50;5002591;28;21253;-65
2024/01/31 09:26:46;;;;;;;22.25;12.80;;;;;;;4.09;100.00;100158.19;5013676;28;20025;-66
2024/01/31 09:29:11;;;;;;;19.75;12.23;;;;;;;4.00;100.00;100139.69;5013359;28;20530;-67
2024/01/31 09:31:37;;;;;;;18.75;12.27;;;;;;;3.98;100.00;100143.19;5014019;28;20175;-66
2024/01/31 09:34:02;;;;;;;18.98;12.30;;;;;;;3.74;100.00;100085.91;5017562;28;21362;-66
2024/01/31 09:36:28;;;;;;;18.75;12.07;;;;;;;4.07;100.00;100139.41;5013642;28;20058;-66
2024/01/31 09:38:54;;;;;;;16.42;11.75;;;;;;;4.08;100.00;100138.50;5017732;28;20464;-66
2024/01/31 09:41:22;;;;;;;18.35;11.57;;;;;;;4.19;100.00;100129.41;5008658;28;20052;-66
2024/01/31 09:43:51;;;;;;;20.48;13.77;;;;;;;4.06;100.00;100104.28;4994323;28;20474;-65
2024/01/31 09:46:17;;;;;;;16.65;12.10;;;;;;;4.36;100.00;100144.16;5014526;28;20037;-66
2024/01/31 09:48:42;;;;;;;18.90;13.60;;;;;;;4.15;100.00;100091.00;4996175;28;20405;-67
2024/01/31 09:51:08;;;;;;;18.55;12.68;;;;;;;4.55;100.00;100144.16;4996992;28;20072;-64
2024/01/31 09:53:39;;;;;;;20.30;12.45;;;;;;;4.63;100.00;100144.63;4994701;28;20064;-66
2024/01/31 09:56:05;;;;;;;18.52;12.20;;;;;;;4.52;100.00;100138.28;4996459;28;20652;-68
2024/01/31 09:58:31;;;;;;;17.88;12.00;;;;;;;4.29;100.00;100091.25;5002975;28;20434;-67
2024/01/31 10:01:01;;;;;;;18.23;11.80;;;;;;;4.67;100.00;100137.59;5042997;28;20037;-65
2024/01/31 10:03:27;;;;;;;15.85;11.13;;;;;;;4.68;100.00;100131.53;4997853;28;20129;-65
2024/01/31 10:05:52;;;;;;;15.57;11.25;;;;;;;4.52;100.00;100068.75;5016321;28;20760;-63
2024/01/31 10:08:22;;;;;;;18.63;11.57;;;;;;;4.99;99.71;100128.38;4995845;28;20037;-66
2024/01/31 10:10:48;;;;;;;16.15;10.23;;;;;;;5.19;97.48;100122.28;4999755;28;20048;-67
2024/01/31 10:13:13;;;;;;;17.30;11.07;;;;;;;5.27;96.91;100113.34;4995871;28;20026;-65
2024/01/31 10:15:44;;;;;;;18.92;11.45;;;;;;;5.24;94.97;100111.75;5000548;28;20040;-65
2024/01/31 10:18:11;;;;;;;16.50;10.82;;;;;;;5.21;92.29;100106.75;4999238;28;20017;-65
2024/01/31 10:20:44;;;;;;;16.73;9.50;;;;;;;5.00;88.56;100070.78;5007831;28;20028;-66
2024/01/31 10:23:13;;;;;;;14.20;9.55;;;;;;;5.42;89.40;100109.19;5007691;28;20033;-64
2024/01/31 10:25:39;;;;;;;16.52;10.43;;;;;;;5.42;89.92;100102.28;5013085;28;20022;-66
2024/01/31 10:28:05;;;;;;;15.48;9.77;;;;;;;5.49;88.39;100100.22;5014694;28;20026;-65
2024/01/31 10:30:30;;;;;;;15.40;10.10;;;;;;;5.56;87.55;100086.94;4996989;28;20801;-66
2024/01/31 10:33:02;;;;;;;18.17;10.05;;;;;;;5.62;87.09;100096.13;4999428;28;20392;-66
2024/01/31 10:35:27;;;;;;;15.10;9.27;;;;;;;5.63;85.57;100096.97;5010464;28;20022;-64
2024/01/31 10:37:53;;;;;;;14.13;9.38;;;;;;;5.39;83.40;100054.25;4995020;28;20084;-65
2024/01/31 10:40:19;;;;;;;15.13;9.20;;;;;;;5.72;82.74;100089.59;5000379;28;20203;-68
2024/01/31 10:42:48;;;;;;;14.15;9.40;;;;;;;5.81;81.88;100083.13;4995366;28;20097;-65
2024/01/31 10:45:16;;;;;;;19.42;9.63;;;;;;;5.90;79.43;100084.41;4995738;28;20029;-65
2024/01/31 10:47:45;;;;;;;17.02;9.90;;;;;;;6.03;79.41;100094.97;5011717;28;20048;-66
2024/01/31 10:50:13;;;;;;;14.35;8.60;;;;;;;6.05;76.40;100082.81;5026452;28;20095;-65
2024/01/31 10:52:42;;;;;;;15.30;8.30;;;;;;;6.28;71.52;100079.84;5012473;28;20044;-66
2024/01/31 10:55:08;;;;;;;15.57;7.43;;;;;;;6.48;71.62;100083.09;4988175;28;20036;-66
2024/01/31 10:57:39;;;;;;;14.77;8.93;;;;;;;6.55;74.58;100066.34;5013229;28;20067;-66
2024/01/31 11:00:09;;;;;;;12.75;7.63;;;;;;;6.55;73.19;100063.78;4996017;28;20108;-67
2024/01/31 11:02:35;;;;;;;15.20;9.20;;;;;;;6.50;73.43;100050.28;5002387;28;20029;-66
2024/01/31 11:05:04;;;;;;;13.60;8.25;;;;;;;6.61;72.10;100053.13;5012264;28;20564;-67
2024/01/31 11:07:29;;;;;;;16.53;8.73;;;;;;;6.66;71.81;100061.47;5017580;28;20845;-66
2024/01/31 11:09:55;;;;;;;14.05;7.95;;;;;;;6.69;71.31;100056.09;5014070;28;20184;-65
2024/01/31 11:12:21;;;;;;;13.90;7.95;;;;;;;6.79;69.54;100056.44;5027599;28;20030;-67
2024/01/31 11:14:55;;;;;;;14.27;7.97;;;;;;;6.65;69.94;100010.66;5008014;28;20037;-65